Time;durP1;ratioP1;P1;durP2;ratioP2;P2;SDS_P1;SDS_P2;PMS_P1;PMS_P2;Temp;Humidity;BMP_temperature;BMP_pressure;BME280_temperature;BME280_humidity;BME280_pressure;Samples;Min_cycle;Max_cycle;Signal;HPM_P1;HPM_P2
2021/08/23 00:00:29;;;;;;;1.10;1.00;;;;;;;;;;5006033;28;20393;-76
2021/08/23 00:02:55;;;;;;;1.50;1.07;;;;;;;;;;5006717;28;20916;-75
2021/08/23 00:05:21;;;;;;;2.27;2.17;;;;;;;;;;5004134;28;20488;-75
2021/08/23 00:07:47;;;;;;;7.23;1.57;;;;;;;;;;4994801;28;20381;-75
2021/08/23 00:10:13;;;;;;;1.20;1.10;;;;;;;;;;4995052;28;20765;-75
2021/08/23 00:12:39;;;;;;;1.50;1.40;;;;;;;;;;4995004;28;20407;-75
2021/08/23 00:15:06;;;;;;;1.30;1.20;;;;;;;;;;4994643;28;20438;-75
2021/08/23 00:17:32;;;;;;;1.37;1.00;;;;;;;;;;4994841;28;20493;-75
2021/08/23 00:19:58;;;;;;;1.27;0.77;;;;;;;;;;4994779;28;20501;-75
2021/08/23 00:22:35;;;;;;;1.27;1.17;;;;;;;;;;4994777;28;20407;-75
2021/08/23 00:25:01;;;;;;;0.70;0.60;;;;;;;;;;4994801;28;20922;-75
2021/08/23 00:27:28;;;;;;;1.10;1.00;;;;;;;;;;4993833;28;20420;-75
2021/08/23 00:29:54;;;;;;;1.57;0.80;;;;;;;;;;4994722;28;20443;-75
2021/08/23 00:32:20;;;;;;;1.20;1.10;;;;;;;;;;5003172;28;20892;-75
2021/08/23 00:34:46;;;;;;;1.80;1.03;;;;;;;;;;4997231;28;20429;-75
2021/08/23 00:37:12;;;;;;;1.53;0.80;;;;;;;;;;4994619;28;20440;-75
2021/08/23 00:39:38;;;;;;;1.47;1.20;;;;;;;;;;4994725;28;20396;-75
2021/08/23 00:42:05;;;;;;;1.27;0.80;;;;;;;;;;4994731;28;20389;-75
2021/08/23 00:44:31;;;;;;;1.00;1.00;;;;;;;;;;4993933;28;20562;-75
2021/08/23 00:46:58;;;;;;;1.90;0.97;;;;;;;;;;4993954;28;20527;-74
2021/08/23 00:49:24;;;;;;;0.80;0.80;;;;;;;;;;4994087;28;20433;-74
2021/08/23 00:51:51;;;;;;;1.07;1.00;;;;;;;;;;4994526;28;20395;-74
2021/08/23 00:54:17;;;;;;;0.80;0.80;;;;;;;;;;4994072;28;20499;-74
2021/08/23 00:56:43;;;;;;;1.67;1.10;;;;;;;;;;5008188;28;20553;-74
2021/08/23 00:59:11;;;;;;;2.17;1.00;;;;;;;;;;5009243;28;20479;-74
2021/08/23 01:01:49;;;;;;;3.10;2.83;;;;;;;;;;5002810;28;20786;-75
2021/08/23 01:04:23;;;;;;;2.53;0.97;;;;;;;;;;5008355;28;20428;-74
2021/08/23 01:06:49;;;;;;;1.17;1.07;;;;;;;;;;5013370;28;21037;-74
2021/08/23 01:09:15;;;;;;;1.43;1.23;;;;;;;;;;5020107;28;20476;-74
2021/08/23 01:11:45;;;;;;;3.07;0.97;;;;;;;;;;4996056;28;20476;-74
2021/08/23 01:14:11;;;;;;;2.33;1.93;;;;;;;;;;4993630;28;20389;-74
2021/08/23 01:16:37;;;;;;;1.53;1.43;;;;;;;;;;4993553;28;20456;-74
2021/08/23 01:19:04;;;;;;;0.80;0.70;;;;;;;;;;4993822;28;20414;-74
2021/08/23 01:21:32;;;;;;;1.27;1.27;;;;;;;;;;4993698;28;20754;-74
2021/08/23 01:23:58;;;;;;;1.43;1.33;;;;;;;;;;4993955;28;20393;-74
2021/08/23 01:26:26;;;;;;;0.80;0.80;;;;;;;;;;4992421;28;20449;-75
2021/08/23 01:28:57;;;;;;;0.90;0.87;;;;;;;;;;4993534;28;20413;-74
2021/08/23 01:31:35;;;;;;;2.70;1.97;;;;;;;;;;4993544;28;20417;-74
2021/08/23 01:34:01;;;;;;;1.67;1.57;;;;;;;;;;4992804;28;20408;-74
2021/08/23 01:36:28;;;;;;;3.27;1.43;;;;;;;;;;4993177;28;21077;-74
2021/08/23 01:38:54;;;;;;;0.90;0.70;;;;;;;;;;5001619;28;20394;-74
2021/08/23 01:41:20;;;;;;;1.23;0.70;;;;;;;;;;5008337;28;20410;-74
2021/08/23 01:43:45;;;;;;;0.90;0.80;;;;;;;;;;5000524;28;20988;-74
2021/08/23 01:46:11;;;;;;;0.70;0.70;;;;;;;;;;4992645;28;20901;-74
2021/08/23 01:48:37;;;;;;;1.23;1.13;;;;;;;;;;4993415;28;20436;-74
2021/08/23 01:51:03;;;;;;;0.93;0.93;;;;;;;;;;4993166;28;20484;-74
2021/08/23 01:53:29;;;;;;;1.33;1.23;;;;;;;;;;4993381;28;20414;-74
2021/08/23 01:55:55;;;;;;;1.37;1.27;;;;;;;;;;4991546;28;20444;-74
2021/08/23 01:58:21;;;;;;;1.03;1.03;;;;;;;;;;5008156;28;20476;-74
2021/08/23 02:00:47;;;;;;;0.80;0.80;;;;;;;;;;4993001;28;20468;-75
2021/08/23 02:03:13;;;;;;;1.47;0.90;;;;;;;;;;4992974;28;20471;-74
2021/08/23 02:05:39;;;;;;;0.90;0.80;;;;;;;;;;4992997;28;20447;-74
2021/08/23 02:08:06;;;;;;;2.03;1.00;;;;;;;;;;4997006;28;20433;-74
2021/08/23 02:10:32;;;;;;;1.67;1.57;;;;;;;;;;5002118;28;20442;-74
2021/08/23 02:12:58;;;;;;;2.57;2.37;;;;;;;;;;4992760;28;20748;-74
2021/08/23 02:15:24;;;;;;;1.80;1.70;;;;;;;;;;4992624;28;20415;-74
2021/08/23 02:17:50;;;;;;;1.57;1.07;;;;;;;;;;4992410;28;20408;-74
2021/08/23 02:20:16;;;;;;;1.10;1.00;;;;;;;;;;4992730;28;20504;-74
2021/08/23 02:22:42;;;;;;;1.27;1.03;;;;;;;;;;4992898;28;20389;-74
2021/08/23 02:25:08;;;;;;;0.90;0.90;;;;;;;;;;4991570;28;20459;-74
2021/08/23 02:27:35;;;;;;;1.70;1.10;;;;;;;;;;4992424;28;20497;-74
2021/08/23 02:30:01;;;;;;;1.30;1.20;;;;;;;;;;4992521;28;20458;-74
2021/08/23 02:32:27;;;;;;;0.70;0.60;;;;;;;;;;4992228;28;20479;-74
2021/08/23 02:34:53;;;;;;;2.23;1.40;;;;;;;;;;4992311;28;20487;-74
2021/08/23 02:37:19;;;;;;;1.27;1.20;;;;;;;;;;4991776;28;20431;-74
2021/08/23 02:39:45;;;;;;;1.00;0.90;;;;;;;;;;5002381;28;20414;-75
2021/08/23 02:42:11;;;;;;;3.53;1.40;;;;;;;;;;5012248;28;20851;-74
2021/08/23 02:44:36;;;;;;;1.17;1.07;;;;;;;;;;5010921;28;20427;-74
2021/08/23 02:47:03;;;;;;;1.00;0.90;;;;;;;;;;5012133;28;20433;-74
2021/08/23 02:49:28;;;;;;;1.87;1.37;;;;;;;;;;4993562;28;20400;-74
2021/08/23 02:51:55;;;;;;;0.73;0.73;;;;;;;;;;4992302;28;20413;-74
2021/08/23 02:54:21;;;;;;;1.60;1.50;;;;;;;;;;4992511;28;20410;-74
2021/08/23 02:56:47;;;;;;;1.13;0.80;;;;;;;;;;4991179;28;20462;-74
2021/08/23 02:59:13;;;;;;;1.73;1.63;;;;;;;;;;4991939;28;20929;-74
2021/08/23 03:01:39;;;;;;;0.77;0.77;;;;;;;;;;4992430;28;20430;-74
2021/08/23 03:04:05;;;;;;;1.20;0.80;;;;;;;;;;4992280;28;20471;-74
2021/08/23 03:06:31;;;;;;;3.00;1.63;;;;;;;;;;4991664;28;20473;-74
2021/08/23 03:08:57;;;;;;;0.87;0.83;;;;;;;;;;5000607;28;20429;-74
2021/08/23 03:11:25;;;;;;;0.83;0.80;;;;;;;;;;5018867;28;20392;-74
2021/08/23 03:13:51;;;;;;;1.00;1.00;;;;;;;;;;5011112;28;20424;-74
2021/08/23 03:16:16;;;;;;;1.47;1.00;;;;;;;;;;4991470;28;20815;-74
2021/08/23 03:18:42;;;;;;;1.30;0.90;;;;;;;;;;4992234;28;20459;-74
2021/08/23 03:21:08;;;;;;;1.83;1.07;;;;;;;;;;4992013;28;20471;-74
2021/08/23 03:23:35;;;;;;;2.07;1.07;;;;;;;;;;4992222;28;20400;-74
2021/08/23 03:26:01;;;;;;;2.27;1.40;;;;;;;;;;4991098;28;20436;-74
2021/08/23 03:28:27;;;;;;;1.03;0.70;;;;;;;;;;4991950;28;20434;-74
2021/08/23 03:30:53;;;;;;;1.00;0.90;;;;;;;;;;4991613;28;20828;-74
2021/08/23 03:33:19;;;;;;;1.50;1.30;;;;;;;;;;4990494;28;20508;-74
2021/08/23 03:35:45;;;;;;;1.03;0.83;;;;;;;;;;4991458;28;20526;-74
2021/08/23 03:38:11;;;;;;;1.43;1.33;;;;;;;;;;4993929;28;20392;-74
2021/08/23 03:40:37;;;;;;;1.23;1.13;;;;;;;;;;5007025;28;20518;-74
2021/08/23 03:43:03;;;;;;;1.77;1.37;;;;;;;;;;4992090;28;20527;-74
2021/08/23 03:45:29;;;;;;;1.07;0.90;;;;;;;;;;4991391;28;20477;-74
2021/08/23 03:47:55;;;;;;;1.03;0.97;;;;;;;;;;4991746;28;20514;-74
2021/08/23 03:50:21;;;;;;;0.70;0.60;;;;;;;;;;4991572;28;20411;-74
2021/08/23 03:52:47;;;;;;;1.40;1.30;;;;;;;;;;4991925;28;20913;-74
2021/08/23 03:55:13;;;;;;;1.60;1.50;;;;;;;;;;4991237;28;20467;-74
2021/08/23 03:57:39;;;;;;;1.57;0.80;;;;;;;;;;4995049;28;20758;-74
2021/08/23 04:00:06;;;;;;;1.27;1.20;;;;;;;;;;5001332;28;20444;-74
2021/08/23 04:02:33;;;;;;;0.70;0.60;;;;;;;;;;5006666;28;20482;-74
2021/08/23 04:04:59;;;;;;;1.43;1.30;;;;;;;;;;5004266;28;20461;-74
2021/08/23 04:07:25;;;;;;;1.53;1.43;;;;;;;;;;4995077;28;20472;-74
2021/08/23 04:09:51;;;;;;;0.90;0.80;;;;;;;;;;5001401;28;22157;-74
2021/08/23 04:12:17;;;;;;;2.03;1.23;;;;;;;;;;4999092;28;20806;-74
2021/08/23 04:14:43;;;;;;;3.33;1.67;;;;;;;;;;4993877;28;20436;-74
2021/08/23 04:17:09;;;;;;;0.80;0.70;;;;;;;;;;4994814;28;20421;-74
2021/08/23 04:19:35;;;;;;;1.53;1.43;;;;;;;;;;4995125;28;20419;-74
2021/08/23 04:22:01;;;;;;;1.47;1.37;;;;;;;;;;4994943;28;20452;-74
2021/08/23 04:24:27;;;;;;;1.63;1.53;;;;;;;;;;4995127;28;20425;-75
2021/08/23 04:26:53;;;;;;;1.70;1.60;;;;;;;;;;5009483;28;20500;-76
2021/08/23 04:29:19;;;;;;;2.23;1.20;;;;;;;;;;5014573;28;20555;-73
2021/08/23 04:31:45;;;;;;;3.17;1.20;;;;;;;;;;5014340;28;20503;-72
2021/08/23 04:34:11;;;;;;;1.27;1.07;;;;;;;;;;5013329;28;20408;-72
2021/08/23 04:36:38;;;;;;;1.17;1.00;;;;;;;;;;4993983;28;20858;-72
2021/08/23 04:39:04;;;;;;;1.50;1.00;;;;;;;;;;5002236;28;20891;-73
2021/08/23 04:41:35;;;;;;;2.43;1.50;;;;;;;;;;5009667;28;20406;-73
2021/08/23 04:44:01;;;;;;;1.43;1.33;;;;;;;;;;4994000;28;20991;-72
2021/08/23 04:46:26;;;;;;;1.10;1.00;;;;;;;;;;4993270;28;20524;-72
2021/08/23 04:48:52;;;;;;;2.10;1.10;;;;;;;;;;4993203;28;20496;-71
2021/08/23 04:51:18;;;;;;;2.30;2.10;;;;;;;;;;5002281;28;20414;-71
2021/08/23 04:53:44;;;;;;;2.67;1.53;;;;;;;;;;4994553;28;20981;-73
2021/08/23 04:56:11;;;;;;;3.57;2.20;;;;;;;;;;4993159;28;20455;-71
2021/08/23 04:58:37;;;;;;;1.50;1.40;;;;;;;;;;4993072;28;20517;-72
2021/08/23 05:01:02;;;;;;;1.73;1.63;;;;;;;;;;4994283;28;20501;-73
2021/08/23 05:03:28;;;;;;;3.23;1.13;;;;;;;;;;4994218;28;20894;-73
2021/08/23 05:05:54;;;;;;;1.73;1.50;;;;;;;;;;4993875;28;20496;-73
2021/08/23 05:08:20;;;;;;;1.73;1.63;;;;;;;;;;4994922;28;20406;-72
2021/08/23 05:10:47;;;;;;;1.57;0.87;;;;;;;;;;5004403;28;20387;-72
2021/08/23 05:13:13;;;;;;;2.40;1.77;;;;;;;;;;4993216;28;20404;-72
2021/08/23 05:15:39;;;;;;;1.50;1.40;;;;;;;;;;4993871;28;20445;-73
2021/08/23 05:18:05;;;;;;;0.80;0.80;;;;;;;;;;4993799;28;20472;-72
2021/08/23 05:20:31;;;;;;;1.87;1.47;;;;;;;;;;4993813;28;20408;-73
2021/08/23 05:22:57;;;;;;;2.30;2.10;;;;;;;;;;4993718;28;20388;-73
2021/08/23 05:25:23;;;;;;;1.40;1.30;;;;;;;;;;4993701;28;20500;-73
2021/08/23 05:27:49;;;;;;;2.10;1.80;;;;;;;;;;4993439;28;20504;-73
2021/08/23 05:30:15;;;;;;;1.87;1.77;;;;;;;;;;4993855;28;20395;-73
2021/08/23 05:32:41;;;;;;;2.00;1.77;;;;;;;;;;5008579;28;20453;-73
2021/08/23 05:35:07;;;;;;;1.07;0.97;;;;;;;;;;4993570;28;20457;-72
2021/08/23 05:37:33;;;;;;;1.33;0.97;;;;;;;;;;5008044;28;20430;-73
2021/08/23 05:39:59;;;;;;;1.77;1.67;;;;;;;;;;5005577;28;20432;-73
2021/08/23 05:42:25;;;;;;;1.73;1.33;;;;;;;;;;5024127;28;20461;-72
2021/08/23 05:44:55;;;;;;;2.83;1.20;;;;;;;;;;4992805;28;20957;-73
2021/08/23 05:47:22;;;;;;;0.80;0.80;;;;;;;;;;4993176;28;20749;-72
2021/08/23 05:49:48;;;;;;;2.23;2.13;;;;;;;;;;4993318;28;20413;-72
2021/08/23 05:52:14;;;;;;;3.63;1.80;;;;;;;;;;4993115;28;20393;-73
2021/08/23 05:54:40;;;;;;;1.93;1.83;;;;;;;;;;4993161;28;20788;-73
2021/08/23 05:57:06;;;;;;;1.87;1.77;;;;;;;;;;4992973;28;20832;-73
2021/08/23 05:59:32;;;;;;;1.40;1.30;;;;;;;;;;4993038;28;20476;-72
2021/08/23 06:01:58;;;;;;;1.43;1.33;;;;;;;;;;4993251;28;20962;-73
2021/08/23 06:04:24;;;;;;;1.67;1.57;;;;;;;;;;4993210;28;20382;-73
2021/08/23 06:06:51;;;;;;;1.67;1.57;;;;;;;;;;4992506;28;20429;-72
2021/08/23 06:09:20;;;;;;;1.63;1.53;;;;;;;;;;5003392;28;21112;-73
2021/08/23 06:11:47;;;;;;;0.87;0.73;;;;;;;;;;5002838;28;20391;-73
2021/08/23 06:14:13;;;;;;;5.53;2.27;;;;;;;;;;4973604;28;20511;-72
2021/08/23 06:16:39;;;;;;;2.13;2.03;;;;;;;;;;4973050;28;20939;-73
2021/08/23 06:19:05;;;;;;;7.80;1.23;;;;;;;;;;4973490;28;20412;-73
2021/08/23 06:21:31;;;;;;;1.20;0.93;;;;;;;;;;4973588;28;20821;-72
2021/08/23 06:23:57;;;;;;;2.03;1.87;;;;;;;;;;4973283;28;20400;-73
2021/08/23 06:26:23;;;;;;;1.20;1.10;;;;;;;;;;4973090;28;20524;-73
2021/08/23 06:28:49;;;;;;;2.00;1.60;;;;;;;;;;4973192;28;20836;-73
2021/08/23 06:31:15;;;;;;;2.20;1.80;;;;;;;;;;4973421;28;20384;-72
2021/08/23 06:33:42;;;;;;;1.20;1.10;;;;;;;;;;4973229;28;20436;-72
2021/08/23 06:36:07;;;;;;;1.40;1.30;;;;;;;;;;4973249;28;20484;-73
2021/08/23 06:38:33;;;;;;;1.73;1.43;;;;;;;;;;4981852;28;20420;-73
2021/08/23 06:40:59;;;;;;;2.03;1.47;;;;;;;;;;5003864;28;20957;-73
2021/08/23 06:43:26;;;;;;;2.20;2.10;;;;;;;;;;5000211;28;20943;-73
2021/08/23 06:45:51;;;;;;;3.57;1.43;;;;;;;;;;4992031;28;20476;-73
2021/08/23 06:48:17;;;;;;;3.17;2.03;;;;;;;;;;4991337;28;20386;-72
2021/08/23 06:50:43;;;;;;;2.60;2.50;;;;;;;;;;4992436;28;20517;-72
2021/08/23 06:53:09;;;;;;;3.37;2.17;;;;;;;;;;5001981;28;20490;-73
2021/08/23 06:55:35;;;;;;;1.53;1.43;;;;;;;;;;5009273;28;20566;-72
2021/08/23 06:58:02;;;;;;;1.53;1.43;;;;;;;;;;5011634;28;20937;-73
2021/08/23 07:00:28;;;;;;;1.00;0.90;;;;;;;;;;5012121;28;20443;-72
2021/08/23 07:02:54;;;;;;;2.53;2.33;;;;;;;;;;5011928;28;20827;-73
2021/08/23 07:05:21;;;;;;;2.47;2.23;;;;;;;;;;5012006;28;20450;-73
2021/08/23 07:07:48;;;;;;;5.90;1.53;;;;;;;;;;5011360;28;20388;-72
2021/08/23 07:10:14;;;;;;;1.03;0.87;;;;;;;;;;5011860;28;20504;-72
2021/08/23 07:12:41;;;;;;;4.27;1.80;;;;;;;;;;5009128;28;20395;-73
2021/08/23 07:15:08;;;;;;;5.47;2.60;;;;;;;;;;4972918;28;20448;-72
2021/08/23 07:17:34;;;;;;;2.30;1.63;;;;;;;;;;4972621;28;20934;-73
2021/08/23 07:20:00;;;;;;;1.63;1.53;;;;;;;;;;4972828;28;20418;-73
2021/08/23 07:22:26;;;;;;;3.17;1.77;;;;;;;;;;5004643;28;20476;-72
2021/08/23 07:24:52;;;;;;;2.43;2.23;;;;;;;;;;5003455;28;20435;-73
2021/08/23 07:27:18;;;;;;;4.10;1.87;;;;;;;;;;5026999;28;20999;-73
2021/08/23 07:29:45;;;;;;;2.50;2.33;;;;;;;;;;5012175;28;21059;-73
2021/08/23 07:32:11;;;;;;;1.37;1.07;;;;;;;;;;5014872;28;20396;-73
2021/08/23 07:34:37;;;;;;;1.47;1.37;;;;;;;;;;5015620;28;20380;-73
2021/08/23 07:37:03;;;;;;;2.37;2.07;;;;;;;;;;5014862;28;20425;-73
2021/08/23 07:39:29;;;;;;;2.37;2.17;;;;;;;;;;5015554;28;20384;-73
2021/08/23 07:41:55;;;;;;;2.90;1.47;;;;;;;;;;5015421;28;20859;-74
2021/08/23 07:44:21;;;;;;;2.13;1.80;;;;;;;;;;5002849;28;20469;-73
2021/08/23 07:46:47;;;;;;;2.60;2.27;;;;;;;;;;4995497;28;20445;-73
2021/08/23 07:49:13;;;;;;;2.80;2.00;;;;;;;;;;4995791;28;20389;-73
2021/08/23 07:51:39;;;;;;;1.57;1.40;;;;;;;;;;4998978;28;20423;-73
2021/08/23 07:54:05;;;;;;;2.70;1.27;;;;;;;;;;5006707;28;20388;-73
2021/08/23 07:56:31;;;;;;;2.30;2.10;;;;;;;;;;5015074;28;20404;-73
2021/08/23 07:58:57;;;;;;;1.10;1.00;;;;;;;;;;4999149;28;20466;-73
2021/08/23 08:01:24;;;;;;;1.50;1.40;;;;;;;;;;4995710;28;20418;-73
2021/08/23 08:03:50;;;;;;;2.53;2.33;;;;;;;;;;4995438;28;20414;-73
2021/08/23 08:06:16;;;;;;;2.30;2.10;;;;;;;;;;4995027;28;20815;-72
2021/08/23 08:08:42;;;;;;;2.43;1.50;;;;;;;;;;5000661;28;20392;-72
2021/08/23 08:11:09;;;;;;;2.30;1.13;;;;;;;;;;5006838;28;20417;-73
2021/08/23 08:13:35;;;;;;;3.90;2.43;;;;;;;;;;5011741;28;20448;-72
2021/08/23 08:16:01;;;;;;;2.90;1.23;;;;;;;;;;4994628;28;20465;-72
2021/08/23 08:18:27;;;;;;;3.60;3.30;;;;;;;;;;5003887;28;20428;-73
2021/08/23 08:20:53;;;;;;;1.67;1.57;;;;;;;;;;5006333;28;20478;-72
2021/08/23 08:23:19;;;;;;;1.67;1.57;;;;;;;;;;5014367;28;20492;-72
2021/08/23 08:25:45;;;;;;;3.47;1.53;;;;;;;;;;5014361;28;20489;-73
2021/08/23 08:28:12;;;;;;;3.50;3.30;;;;;;;;;;5014305;28;20748;-72
2021/08/23 08:30:38;;;;;;;1.53;1.43;;;;;;;;;;5029782;28;20514;-72
2021/08/23 08:33:04;;;;;;;1.50;1.40;;;;;;;;;;5014402;28;20406;-74
2021/08/23 08:35:30;;;;;;;1.37;1.20;;;;;;;;;;5014197;28;20873;-73
2021/08/23 08:37:56;;;;;;;3.43;3.00;;;;;;;;;;5013574;28;20879;-73
2021/08/23 08:40:24;;;;;;;4.23;3.10;;;;;;;;;;5014455;28;20451;-73
2021/08/23 08:42:50;;;;;;;1.37;1.27;;;;;;;;;;5013033;28;20476;-72
2021/08/23 08:45:16;;;;;;;2.03;1.93;;;;;;;;;;5000970;28;20869;-72
2021/08/23 08:47:43;;;;;;;1.77;1.67;;;;;;;;;;4997583;28;20441;-73
2021/08/23 08:50:14;;;;;;;1.33;0.87;;;;;;;;;;5005862;28;20380;-73
2021/08/23 08:52:43;;;;;;;1.90;1.80;;;;;;;;;;5011541;28;20886;-73
2021/08/23 08:55:09;;;;;;;1.13;1.03;;;;;;;;;;5007441;28;20465;-73
2021/08/23 08:57:35;;;;;;;2.00;1.37;;;;;;;;;;5013776;28;20385;-73
2021/08/23 09:00:01;;;;;;;4.80;1.87;;;;;;;;;;5014025;28;20424;-73
2021/08/23 09:02:27;;;;;;;1.83;1.13;;;;;;;;;;5005176;28;20452;-73
2021/08/23 09:04:54;;;;;;;1.07;0.93;;;;;;;;;;5013136;28;20999;-73
2021/08/23 09:07:20;;;;;;;1.87;1.17;;;;;;;;;;5013056;28;20529;-73
2021/08/23 09:09:46;;;;;;;0.97;0.97;;;;;;;;;;5013885;28;21143;-72
2021/08/23 09:12:13;;;;;;;1.73;1.60;;;;;;;;;;5013594;28;20760;-72
2021/08/23 09:14:49;;;;;;;4.07;3.73;;;;;;;;;;5009730;28;20887;-73
2021/08/23 09:17:15;;;;;;;2.90;1.07;;;;;;;;;;4993833;28;20410;-71
2021/08/23 09:19:41;;;;;;;3.50;1.33;;;;;;;;;;4993803;28;20776;-72
2021/08/23 09:22:08;;;;;;;5.70;1.43;;;;;;;;;;4993749;28;20388;-72
2021/08/23 09:24:36;;;;;;;1.77;1.67;;;;;;;;;;4993724;28;20845;-74
2021/08/23 09:27:06;;;;;;;1.10;0.80;;;;;;;;;;4993651;28;20801;-73
2021/08/23 09:29:55;;;;;;;2.70;2.03;;;;;;;;;;4993785;28;20406;-73
2021/08/23 09:32:25;;;;;;;0.80;0.80;;;;;;;;;;5002046;28;20469;-73
2021/08/23 09:34:51;;;;;;;1.90;1.80;;;;;;;;;;5012280;28;20483;-73
2021/08/23 09:37:18;;;;;;;2.70;1.83;;;;;;;;;;5012757;28;20409;-73
2021/08/23 09:39:44;;;;;;;2.10;1.90;;;;;;;;;;5013116;28;20423;-73
2021/08/23 09:42:13;;;;;;;1.27;1.17;;;;;;;;;;5013199;28;20820;-73
2021/08/23 09:44:39;;;;;;;1.90;1.80;;;;;;;;;;5003385;28;20449;-73
2021/08/23 09:47:06;;;;;;;1.07;1.07;;;;;;;;;;4992986;28;20523;-73
2021/08/23 09:49:42;;;;;;;1.43;1.07;;;;;;;;;;4993526;28;20758;-72
2021/08/23 09:52:09;;;;;;;1.57;1.07;;;;;;;;;;4993268;28;20381;-72
2021/08/23 09:54:35;;;;;;;1.43;1.33;;;;;;;;;;4993011;28;20402;-72
2021/08/23 09:57:03;;;;;;;1.47;1.37;;;;;;;;;;4992739;28;20409;-73
2021/08/23 09:59:30;;;;;;;1.57;1.27;;;;;;;;;;4993387;28;20447;-72
2021/08/23 10:01:58;;;;;;;3.23;1.33;;;;;;;;;;5001650;28;20478;-72
2021/08/23 10:04:24;;;;;;;2.20;2.03;;;;;;;;;;5008373;28;20418;-72
2021/08/23 10:06:51;;;;;;;1.67;1.57;;;;;;;;;;5012316;28;20877;-72
2021/08/23 10:09:17;;;;;;;1.67;1.57;;;;;;;;;;5011030;28;20902;-73
2021/08/23 10:11:43;;;;;;;1.33;1.23;;;;;;;;;;5004490;28;20396;-73
2021/08/23 10:14:09;;;;;;;1.60;1.30;;;;;;;;;;5007590;28;20457;-72
2021/08/23 10:16:35;;;;;;;0.90;0.90;;;;;;;;;;5000598;28;20405;-73
2021/08/23 10:19:02;;;;;;;0.90;0.90;;;;;;;;;;4993156;28;20838;-73
2021/08/23 10:21:28;;;;;;;3.17;1.00;;;;;;;;;;4992768;28;20387;-73
2021/08/23 10:23:54;;;;;;;1.53;1.43;;;;;;;;;;4993300;28;20420;-73
2021/08/23 10:26:20;;;;;;;1.17;0.97;;;;;;;;;;4992507;28;20470;-73
2021/08/23 10:28:50;;;;;;;1.57;0.93;;;;;;;;;;4993024;28;20408;-73
2021/08/23 10:31:17;;;;;;;2.40;2.00;;;;;;;;;;4992740;28;20458;-72
2021/08/23 10:33:43;;;;;;;1.03;0.93;;;;;;;;;;4992577;28;20441;-72
2021/08/23 10:36:14;;;;;;;1.37;1.27;;;;;;;;;;4992245;28;20452;-72
2021/08/23 10:38:41;;;;;;;1.30;1.20;;;;;;;;;;4992660;28;20407;-73
2021/08/23 10:41:11;;;;;;;1.30;1.20;;;;;;;;;;4992725;28;20423;-72
2021/08/23 10:43:43;;;;;;;0.80;0.80;;;;;;;;;;4992967;28;20502;-73
2021/08/23 10:46:28;;;;;;;1.23;0.83;;;;;;;;;;5003396;28;20493;-73
2021/08/23 10:48:55;;;;;;;1.50;1.23;;;;;;;;;;5011991;28;20432;-72
2021/08/23 10:51:27;;;;;;;1.00;0.80;;;;;;;;;;4999228;28;20493;-73
2021/08/23 10:53:53;;;;;;;0.87;0.87;;;;;;;;;;4992596;28;20414;-73
2021/08/23 10:56:21;;;;;;;2.17;2.07;;;;;;;;;;4991261;28;20798;-73
2021/08/23 10:58:47;;;;;;;1.53;1.43;;;;;;;;;;4992549;28;21028;-72
2021/08/23 11:01:19;;;;;;;0.80;0.80;;;;;;;;;;4992131;28;20430;-72
2021/08/23 11:03:45;;;;;;;1.20;1.10;;;;;;;;;;4992332;28;20410;-73
2021/08/23 11:06:11;;;;;;;1.17;1.07;;;;;;;;;;4993502;28;20839;-72
2021/08/23 11:08:38;;;;;;;2.53;1.27;;;;;;;;;;4995814;28;20435;-72
2021/08/23 11:11:13;;;;;;;1.30;1.20;;;;;;;;;;4996505;28;20763;-73
2021/08/23 11:13:40;;;;;;;0.70;0.70;;;;;;;;;;4999677;28;20510;-74
2021/08/23 11:16:06;;;;;;;0.80;0.77;;;;;;;;;;5007122;28;20443;-71
2021/08/23 11:18:40;;;;;;;2.40;2.23;;;;;;;;;;5015737;28;20524;-72
2021/08/23 11:21:06;;;;;;;0.87;0.83;;;;;;;;;;5007258;28;20437;-72
2021/08/23 11:23:32;;;;;;;1.73;1.00;;;;;;;;;;4996058;28;20421;-73
2021/08/23 11:25:59;;;;;;;1.10;1.00;;;;;;;;;;5010823;28;20492;-73
2021/08/23 11:28:29;;;;;;;1.70;0.90;;;;;;;;;;4996023;28;20403;-73
2021/08/23 11:30:55;;;;;;;1.30;1.20;;;;;;;;;;4995637;28;20913;-73
2021/08/23 11:33:24;;;;;;;1.43;1.33;;;;;;;;;;4996000;28;20405;-73
2021/08/23 11:35:50;;;;;;;1.60;1.10;;;;;;;;;;4995395;28;20479;-73
2021/08/23 11:38:16;;;;;;;1.10;0.70;;;;;;;;;;4995995;28;20416;-73
2021/08/23 11:40:44;;;;;;;0.90;0.90;;;;;;;;;;4995694;28;20382;-73
2021/08/23 11:43:10;;;;;;;0.93;0.90;;;;;;;;;;4995887;28;20553;-73
2021/08/23 11:45:37;;;;;;;1.67;1.20;;;;;;;;;;5006122;28;20949;-73
2021/08/23 11:48:03;;;;;;;2.00;1.43;;;;;;;;;;5015039;28;20411;-73
2021/08/23 11:50:30;;;;;;;1.33;1.23;;;;;;;;;;5015365;28;20415;-73
2021/08/23 11:53:03;;;;;;;1.40;1.30;;;;;;;;;;4995408;28;20545;-73
2021/08/23 11:55:34;;;;;;;1.63;1.53;;;;;;;;;;4995644;28;20468;-73
2021/08/23 11:58:04;;;;;;;1.70;1.60;;;;;;;;;;4995061;28;20454;-73
2021/08/23 12:00:31;;;;;;;1.93;1.73;;;;;;;;;;4995338;28;20417;-73
2021/08/23 12:03:04;;;;;;;1.23;1.13;;;;;;;;;;4995418;28;20416;-73
2021/08/23 12:05:40;;;;;;;1.87;1.27;;;;;;;;;;4995252;28;20480;-72
2021/08/23 12:08:07;;;;;;;4.40;1.10;;;;;;;;;;4995091;28;20451;-72
2021/08/23 12:10:34;;;;;;;0.70;0.60;;;;;;;;;;4995265;28;20834;-73
2021/08/23 12:13:09;;;;;;;2.30;2.13;;;;;;;;;;4995295;28;20487;-72
2021/08/23 12:15:36;;;;;;;0.97;0.87;;;;;;;;;;5020752;28;20442;-73
2021/08/23 12:18:12;;;;;;;1.10;0.83;;;;;;;;;;5014331;28;20431;-72
2021/08/23 12:20:38;;;;;;;1.77;1.60;;;;;;;;;;5014613;28;20492;-72
2021/08/23 12:23:04;;;;;;;0.83;0.73;;;;;;;;;;4998235;28;20440;-73
2021/08/23 12:25:30;;;;;;;1.30;1.27;;;;;;;;;;4994761;28;20465;-73
2021/08/23 12:27:56;;;;;;;1.13;0.87;;;;;;;;;;4994795;28;20820;-74
2021/08/23 12:30:32;;;;;;;2.20;1.00;;;;;;;;;;4994761;28;20406;-73
2021/08/23 12:32:58;;;;;;;0.77;0.70;;;;;;;;;;4994921;28;20452;-74
2021/08/23 12:35:33;;;;;;;3.37;2.17;;;;;;;;;;4994651;28;20462;-74
2021/08/23 12:37:59;;;;;;;1.37;1.27;;;;;;;;;;4994855;28;20413;-72
2021/08/23 12:40:26;;;;;;;0.93;0.87;;;;;;;;;;4994822;28;20447;-72
2021/08/23 12:42:56;;;;;;;1.30;1.20;;;;;;;;;;4994560;28;20418;-72
2021/08/23 12:45:22;;;;;;;1.10;0.90;;;;;;;;;;5004593;28;20484;-72
2021/08/23 12:47:48;;;;;;;0.77;0.77;;;;;;;;;;5012611;28;20412;-71
2021/08/23 12:50:14;;;;;;;0.93;0.90;;;;;;;;;;5014149;28;20402;-71
2021/08/23 12:52:40;;;;;;;0.80;0.70;;;;;;;;;;5019770;28;20435;-72
2021/08/23 12:55:06;;;;;;;1.00;0.90;;;;;;;;;;4994327;28;20816;-72
2021/08/23 12:57:32;;;;;;;1.47;1.37;;;;;;;;;;4993516;28;20411;-72
2021/08/23 12:59:58;;;;;;;1.00;0.80;;;;;;;;;;4994029;28;20897;-72
2021/08/23 13:02:24;;;;;;;2.63;1.00;;;;;;;;;;4994328;28;20429;-72
2021/08/23 13:04:50;;;;;;;1.93;1.53;;;;;;;;;;4993965;28;20423;-73
2021/08/23 13:07:16;;;;;;;1.30;1.20;;;;;;;;;;4994511;28;20413;-72
2021/08/23 13:09:42;;;;;;;1.00;0.77;;;;;;;;;;4994345;28;20464;-72
2021/08/23 13:12:08;;;;;;;1.87;0.80;;;;;;;;;;4994190;28;20416;-71
2021/08/23 13:14:34;;;;;;;0.70;0.67;;;;;;;;;;5004486;28;20421;-72
2021/08/23 13:17:00;;;;;;;1.00;0.90;;;;;;;;;;5005670;28;20492;-73
2021/08/23 13:19:26;;;;;;;0.80;0.80;;;;;;;;;;5029002;28;20421;-70
2021/08/23 13:21:53;;;;;;;1.73;0.93;;;;;;;;;;5013438;28;20412;-71
2021/08/23 13:24:19;;;;;;;0.80;0.80;;;;;;;;;;4994221;28;20518;-70
2021/08/23 13:26:45;;;;;;;1.60;1.50;;;;;;;;;;5008532;28;20573;-71
2021/08/23 13:29:11;;;;;;;1.57;1.47;;;;;;;;;;5008037;28;20425;-70
2021/08/23 13:31:37;;;;;;;1.93;1.10;;;;;;;;;;4993524;28;20460;-71
2021/08/23 13:34:03;;;;;;;1.30;1.20;;;;;;;;;;4993652;28;20505;-71
2021/08/23 13:36:29;;;;;;;1.57;1.43;;;;;;;;;;5008305;28;20457;-70
2021/08/23 13:38:55;;;;;;;2.00;1.17;;;;;;;;;;4993589;28;20438;-71
2021/08/23 13:41:21;;;;;;;1.73;1.63;;;;;;;;;;4993779;28;20415;-71
2021/08/23 13:43:48;;;;;;;0.70;0.70;;;;;;;;;;4998050;28;20432;-71
2021/08/23 13:46:14;;;;;;;1.37;1.27;;;;;;;;;;5003966;28;20523;-70
2021/08/23 13:48:40;;;;;;;3.23;1.33;;;;;;;;;;5028431;28;20915;-71
2021/08/23 13:51:07;;;;;;;1.03;0.93;;;;;;;;;;5012939;28;20421;-71
2021/08/23 13:53:33;;;;;;;1.30;1.20;;;;;;;;;;4994427;28;20435;-71
2021/08/23 13:55:58;;;;;;;1.60;1.50;;;;;;;;;;4991634;28;20872;-71
2021/08/23 13:58:24;;;;;;;2.43;1.47;;;;;;;;;;4993467;28;20415;-71
2021/08/23 14:00:50;;;;;;;1.20;1.20;;;;;;;;;;4992962;28;20504;-71
2021/08/23 14:03:16;;;;;;;1.40;1.30;;;;;;;;;;4993134;28;20893;-70
2021/08/23 14:05:42;;;;;;;1.43;1.33;;;;;;;;;;4993016;28;20840;-71
2021/08/23 14:08:08;;;;;;;1.13;1.03;;;;;;;;;;4992863;28;20782;-71
2021/08/23 14:10:34;;;;;;;1.63;1.53;;;;;;;;;;4993174;28;20413;-71
2021/08/23 14:13:00;;;;;;;1.57;1.47;;;;;;;;;;4992949;28;20416;-71
2021/08/23 14:15:26;;;;;;;2.73;1.50;;;;;;;;;;5003062;28;20475;-72
2021/08/23 14:17:52;;;;;;;1.23;1.13;;;;;;;;;;5011920;28;20471;-71
2021/08/23 14:20:18;;;;;;;4.40;1.50;;;;;;;;;;5012580;28;20421;-71
2021/08/23 14:22:44;;;;;;;1.33;1.20;;;;;;;;;;5002331;28;20484;-71
2021/08/23 14:25:12;;;;;;;0.77;0.77;;;;;;;;;;4992689;28;20476;-71
2021/08/23 14:27:38;;;;;;;2.97;1.90;;;;;;;;;;4992714;28;20490;-71
2021/08/23 14:30:04;;;;;;;0.90;0.70;;;;;;;;;;5007667;28;20923;-72
2021/08/23 14:32:30;;;;;;;2.17;2.00;;;;;;;;;;4992869;28;20424;-73
2021/08/23 14:34:56;;;;;;;1.30;1.20;;;;;;;;;;4992583;28;20897;-72
2021/08/23 14:37:22;;;;;;;1.30;1.20;;;;;;;;;;4992757;28;20418;-71
2021/08/23 14:39:48;;;;;;;1.40;1.10;;;;;;;;;;4992733;28;20413;-71